Aérodrome :
LOGIN :

S'inscrire | Disclaimer

   EN    FR    IT 

 










Légende :    VFR   VFR Marginal   IFR   IFR Intensif   IFR Très Intensif
Visi : 
Plafond : 
>= 8 km
>= 3000ft
5 à 8 km
1000 à 3000 ft
1500m à 5 km
500 à 1000 ft
800 à 1500m
200 à 500 ft
< 800m
< 200 ft
Symboles :   Orages  Brouillard  Fortes neiges  Fortes précipitations  Vent > 20 kt
SIGMETs :   Divers  Orages  Givrage  Turbulence  Onde Orograph.  Cendres Volcan.






- Altitude de l'aérodrome : 423 ft
- Code IATA : PIS


LFBI - Poitiers

DERNIER METAR :
  • 260530Z AUTO 22004KT 1700 BR VV/// 10/09 Q1025 BECMG 0700 FG

METARs EXPIRÉS :
  • 260500Z AUTO 23003KT 0900 R21/1300U FG VV/// 10/10 Q1024 TEMPO 0200 FG
  • 260430Z AUTO 21004KT 1000 0900 R21/1400U BCFG VV/// 10/10 Q1024 TEMPO 0200 FG
  • 260400Z AUTO 19004KT 0700 0650 R21/0900N FG VV/// 10/10 Q1024 TEMPO 0200 FG
  • 260330Z AUTO VRB02KT 0800 0650 R21/1000D FG VV/// 10/10 Q1024 TEMPO 0200 FG
  • 260300Z AUTO 24004KT 0750 R21/0900D FG VV/// 10/10 Q1024 TEMPO 0200 FG

TAF TAF LFBI
Valide du 26 à 06h jusqu'au 27 à 06h UTC


260500Z 2606/2706 20005KT 0700 FG VV///
BECMG 2609/2611 4000 BR OVC005
BECMG 2611/2613 9999 NSW BKN020
BECMG 2614/2616 CAVOK
PROB40 2701/2706 3000 BR
PROB30 2703/2706 0500 FG VV///



MET'MAP, la Météo Aéronautique d'un coup d'oeil ! - Copyright ORBIFLY Décembre 2007 - Disclaimer

ORBIFLY MET'MAP TEAM :

Programmation & Développement : Alexandra Zaïnal
Sur une idée originale de : Baudouin d'Aumeries
Assistance à la programmation : Marc-Olivier Méhu
Soutien technique & logistique : Manuel Goepfert

Contact : metmap@orbifly.com




SOURCES & CREDITS :

   NOAA